Time;durP1;ratioP1;P1;durP2;ratioP2;P2;SDS_P1;SDS_P2;PMS_P1;PMS_P2;Temp;Humidity;BMP_temperature;BMP_pressure;BME280_temperature;BME280_humidity;BME280_pressure;Samples;Min_cycle;Max_cycle;Signal;HPM_P1;HPM_P2
2023/09/13 00:05:23;;;;;;;;;;;18.60;99.90;;;;;;20998025;28;19974;-75
2023/09/13 00:15:24;;;;;;;;;;;18.70;99.90;;;;;;21003517;28;19962;-75
2023/09/13 00:25:25;;;;;;;;;;;18.90;99.90;;;;;;21001495;28;19913;-75
2023/09/13 00:35:26;;;;;;;;;;;18.80;99.90;;;;;;21001925;28;19956;-75
2023/09/13 00:45:29;;;;;;;;;;;18.80;99.90;;;;;;21019415;28;19916;-75
2023/09/13 00:55:30;;;;;;;;;;;18.60;99.90;;;;;;21000704;28;19916;-75
2023/09/13 01:05:31;;;;;;;;;;;18.30;99.90;;;;;;21017180;28;19916;-75
2023/09/13 01:15:52;;;;;;;;;;;18.30;99.90;;;;;;21008678;28;20014;-75
2023/09/13 01:26:03;;;;;;;;;;;18.20;99.90;;;;;;20984414;28;19919;-75
2023/09/13 01:36:04;;;;;;;;;;;18.00;99.90;;;;;;20994242;28;19923;-74
2023/09/13 01:46:04;;;;;;;;;;;17.80;99.90;;;;;;21034728;28;19916;-75
2023/09/13 01:56:05;;;;;;;;;;;17.60;99.90;;;;;;21033917;28;19939;-75
2023/09/13 02:06:06;;;;;;;;;;;17.60;99.90;;;;;;21032198;28;19913;-75
2023/09/13 02:16:07;;;;;;;;;;;17.50;99.90;;;;;;21016912;28;19924;-75
2023/09/13 02:26:17;;;;;;;;;;;17.40;99.90;;;;;;21024184;28;19958;-75
2023/09/13 02:36:18;;;;;;;;;;;17.30;99.90;;;;;;21023769;28;19922;-75
2023/09/13 02:46:18;;;;;;;;;;;17.40;99.90;;;;;;21007495;28;20351;-74
2023/09/13 02:56:19;;;;;;;;;;;17.40;99.90;;;;;;21028782;28;20371;-75
2023/09/13 03:06:20;;;;;;;;;;;17.40;99.90;;;;;;21025246;28;19919;-74
2023/09/13 03:16:21;;;;;;;;;;;17.50;99.90;;;;;;21010624;28;20271;-75
2023/09/13 03:26:24;;;;;;;;;;;17.40;99.90;;;;;;21000458;28;20369;-75
2023/09/13 03:36:27;;;;;;;;;;;17.40;99.90;;;;;;21017352;28;19920;-74
2023/09/13 03:46:29;;;;;;;;;;;17.40;99.90;;;;;;20994456;28;19998;-74
2023/09/13 03:56:32;;;;;;;;;;;17.30;99.90;;;;;;21001682;28;20456;-75
2023/09/13 04:06:34;;;;;;;;;;;17.40;99.90;;;;;;20996575;28;19913;-75
2023/09/13 04:16:34;;;;;;;;;;;17.30;99.90;;;;;;21015822;28;19923;-75
2023/09/13 04:26:36;;;;;;;;;;;17.30;99.90;;;;;;21018993;28;20355;-75
2023/09/13 04:36:36;;;;;;;;;;;17.30;99.90;;;;;;21023292;28;19916;-75
2023/09/13 04:46:37;;;;;;;;;;;17.30;99.90;;;;;;21011540;28;20432;-75
2023/09/13 04:56:38;;;;;;;;;;;17.30;99.90;;;;;;21011494;28;19924;-75
2023/09/13 05:06:39;;;;;;;;;;;17.40;99.90;;;;;;21002968;28;19913;-75
2023/09/13 05:16:40;;;;;;;;;;;17.30;99.90;;;;;;21008781;28;19916;-75
2023/09/13 05:26:41;;;;;;;;;;;17.40;99.90;;;;;;21020439;28;19920;-75
2023/09/13 05:36:41;;;;;;;;;;;17.30;99.90;;;;;;21010115;28;20121;-74
2023/09/13 05:46:42;;;;;;;;;;;17.40;99.90;;;;;;21011278;28;19958;-74
2023/09/13 05:56:43;;;;;;;;;;;17.60;99.90;;;;;;21013915;28;19924;-76
2023/09/13 06:06:44;;;;;;;;;;;18.10;99.90;;;;;;20984349;28;20328;-76
2023/09/13 06:16:45;;;;;;;;;;;18.00;99.90;;;;;;20997547;28;19916;-76
2023/09/13 06:26:45;;;;;;;;;;;17.90;99.90;;;;;;21000920;28;20383;-75
2023/09/13 06:36:48;;;;;;;;;;;18.10;99.90;;;;;;21027003;28;19955;-76
2023/09/13 06:46:49;;;;;;;;;;;18.20;99.90;;;;;;21025745;28;19925;-75
2023/09/13 06:56:49;;;;;;;;;;;18.30;99.90;;;;;;21032172;28;19975;-75
2023/09/13 07:06:50;;;;;;;;;;;18.50;99.90;;;;;;21011802;28;19912;-75
2023/09/13 07:16:50;;;;;;;;;;;18.60;99.90;;;;;;20996363;28;20183;-74
2023/09/13 07:26:51;;;;;;;;;;;18.60;99.90;;;;;;21030917;28;19970;-76
2023/09/13 07:36:52;;;;;;;;;;;18.60;99.90;;;;;;21014520;28;19951;-75
2023/09/13 07:46:52;;;;;;;;;;;18.60;99.90;;;;;;21029242;28;20294;-75
2023/09/13 07:56:53;;;;;;;;;;;19.00;99.90;;;;;;20998170;28;19920;-76
2023/09/13 08:06:53;;;;;;;;;;;19.40;99.90;;;;;;21015648;28;20437;-75
2023/09/13 08:16:54;;;;;;;;;;;19.40;99.90;;;;;;21015297;28;19969;-75
2023/09/13 08:26:55;;;;;;;;;;;19.80;99.90;;;;;;21023208;28;19912;-76
2023/09/13 08:36:58;;;;;;;;;;;19.80;99.90;;;;;;21027871;28;19916;-75
2023/09/13 08:47:01;;;;;;;;;;;20.30;99.90;;;;;;21012620;28;19919;-75
2023/09/13 08:57:02;;;;;;;;;;;20.40;99.90;;;;;;21021764;28;19920;-76
2023/09/13 09:07:05;;;;;;;;;;;20.90;99.90;;;;;;21025303;28;19912;-75
2023/09/13 09:17:05;;;;;;;;;;;22.10;99.90;;;;;;21023439;28;19986;-76
2023/09/13 09:27:06;;;;;;;;;;;22.60;99.90;;;;;;21023383;28;19924;-76
2023/09/13 09:37:07;;;;;;;;;;;21.80;99.90;;;;;;21018948;28;19931;-76
2023/09/13 09:47:12;;;;;;;;;;;21.60;99.90;;;;;;21002300;28;19919;-76
2023/09/13 09:57:18;;;;;;;;;;;21.50;99.90;;;;;;21022947;28;19916;-75
2023/09/13 10:07:18;;;;;;;;;;;21.80;99.90;;;;;;21038825;28;19999;-75
2023/09/13 10:17:20;;;;;;;;;;;21.90;99.90;;;;;;21038096;28;19966;-76
2023/09/13 10:27:22;;;;;;;;;;;21.40;99.90;;;;;;21038317;28;19912;-76
2023/09/13 10:37:39;;;;;;;;;;;21.70;99.90;;;;;;21037072;28;19916;-75
2023/09/13 10:47:40;;;;;;;;;;;22.40;99.90;;;;;;21026735;28;19916;-76
2023/09/13 10:57:41;;;;;;;;;;;22.60;99.90;;;;;;21006553;28;19923;-75
2023/09/13 11:07:46;;;;;;;;;;;22.20;99.90;;;;;;21030157;28;19963;-76
2023/09/13 11:17:47;;;;;;;;;;;22.70;99.90;;;;;;21033971;28;20029;-75
2023/09/13 11:27:48;;;;;;;;;;;23.60;99.90;;;;;;21034476;28;19912;-75
2023/09/13 11:37:49;;;;;;;;;;;23.90;99.90;;;;;;21011825;28;19920;-74
2023/09/13 11:47:50;;;;;;;;;;;24.20;99.90;;;;;;21029480;28;19920;-74
2023/09/13 11:57:51;;;;;;;;;;;24.60;99.90;;;;;;21021428;28;19919;-75
2023/09/13 12:07:52;;;;;;;;;;;23.80;99.90;;;;;;21020606;28;19969;-75
2023/09/13 12:17:59;;;;;;;;;;;24.30;99.90;;;;;;21031002;28;20422;-76
2023/09/13 12:28:00;;;;;;;;;;;23.30;99.90;;;;;;21010186;28;20007;-76
2023/09/13 12:38:02;;;;;;;;;;;24.00;99.90;;;;;;21019892;28;19988;-76
2023/09/13 12:48:03;;;;;;;;;;;23.70;99.90;;;;;;21030660;28;19913;-75
2023/09/13 12:58:07;;;;;;;;;;;23.70;99.90;;;;;;21028332;28;20302;-75
2023/09/13 13:08:08;;;;;;;;;;;23.70;99.90;;;;;;21009477;28;19975;-76
2023/09/13 13:18:09;;;;;;;;;;;23.80;99.90;;;;;;20991421;28;19916;-76
2023/09/13 13:28:10;;;;;;;;;;;24.00;99.90;;;;;;21027331;28;20003;-76
2023/09/13 13:38:10;;;;;;;;;;;24.10;99.90;;;;;;21026872;28;20008;-76
2023/09/13 13:48:11;;;;;;;;;;;24.50;99.90;;;;;;21015648;28;19999;-75
2023/09/13 13:58:12;;;;;;;;;;;25.50;99.90;;;;;;21026047;28;20014;-75
2023/09/13 14:08:12;;;;;;;;;;;24.30;99.90;;;;;;21014340;28;20008;-76
2023/09/13 14:18:13;;;;;;;;;;;24.30;99.90;;;;;;20994582;28;20007;-76
2023/09/13 14:28:14;;;;;;;;;;;24.20;99.90;;;;;;21009328;28;20293;-76
2023/09/13 14:38:18;;;;;;;;;;;23.80;99.90;;;;;;21006559;28;19916;-75
2023/09/13 14:48:18;;;;;;;;;;;23.40;99.90;;;;;;20996848;28;19917;-75
2023/09/13 14:58:19;;;;;;;;;;;23.30;99.90;;;;;;21012099;28;20447;-75
2023/09/13 15:08:19;;;;;;;;;;;22.70;99.90;;;;;;21007274;28;19924;-74
2023/09/13 15:18:20;;;;;;;;;;;22.00;99.90;;;;;;20983296;28;19916;-75
2023/09/13 15:28:21;;;;;;;;;;;21.20;99.90;;;;;;20984860;28;19916;-74
2023/09/13 15:38:21;;;;;;;;;;;20.90;99.90;;;;;;20999180;28;19989;-75
2023/09/13 15:48:22;;;;;;;;;;;21.00;99.90;;;;;;20997093;28;19966;-75
2023/09/13 15:58:23;;;;;;;;;;;20.60;99.90;;;;;;20995483;28;19962;-75
2023/09/13 16:08:23;;;;;;;;;;;20.10;99.90;;;;;;20990811;28;19921;-75
2023/09/13 16:18:24;;;;;;;;;;;19.60;99.90;;;;;;20993485;28;19916;-76
2023/09/13 16:28:24;;;;;;;;;;;20.10;99.90;;;;;;20992901;28;19912;-76
2023/09/13 16:38:25;;;;;;;;;;;20.30;99.90;;;;;;20996919;28;19916;-76
2023/09/13 16:48:26;;;;;;;;;;;20.00;99.90;;;;;;20988818;28;20008;-74
2023/09/13 16:58:26;;;;;;;;;;;19.70;99.90;;;;;;20993310;28;19952;-75
2023/09/13 17:08:27;;;;;;;;;;;19.60;99.90;;;;;;20978013;28;20406;-75
2023/09/13 17:18:27;;;;;;;;;;;19.70;99.90;;;;;;20993668;28;19963;-75
2023/09/13 17:28:28;;;;;;;;;;;19.60;99.90;;;;;;21016357;28;19919;-75
2023/09/13 17:38:29;;;;;;;;;;;19.40;99.90;;;;;;21000546;28;20399;-75
2023/09/13 17:48:30;;;;;;;;;;;19.40;99.90;;;;;;20983999;28;19916;-75
2023/09/13 17:58:31;;;;;;;;;;;19.00;99.90;;;;;;20975491;28;20011;-74
2023/09/13 18:08:31;;;;;;;;;;;18.80;99.90;;;;;;20963008;28;19929;-76
2023/09/13 18:18:32;;;;;;;;;;;18.60;99.90;;;;;;20988361;28;20402;-76
2023/09/13 18:28:33;;;;;;;;;;;18.70;99.90;;;;;;21021194;28;19916;-76
2023/09/13 18:38:35;;;;;;;;;;;18.80;99.90;;;;;;21012070;28;19922;-76
2023/09/13 18:48:36;;;;;;;;;;;18.50;99.90;;;;;;21028353;28;19913;-76
2023/09/13 18:58:36;;;;;;;;;;;18.40;99.90;;;;;;21036210;28;20002;-75
2023/09/13 19:08:37;;;;;;;;;;;18.50;99.90;;;;;;21024278;28;19923;-75
2023/09/13 19:18:39;;;;;;;;;;;18.30;99.90;;;;;;21017078;28;20014;-76
2023/09/13 19:28:40;;;;;;;;;;;18.30;99.90;;;;;;21014657;28;19912;-75
2023/09/13 19:38:41;;;;;;;;;;;18.20;99.90;;;;;;21010572;28;19996;-75
2023/09/13 19:48:42;;;;;;;;;;;18.30;99.90;;;;;;21019725;28;19919;-76
2023/09/13 19:58:46;;;;;;;;;;;18.20;99.90;;;;;;21003888;28;19924;-76
2023/09/13 20:08:47;;;;;;;;;;;18.20;99.90;;;;;;21006988;28;20011;-76
2023/09/13 20:18:47;;;;;;;;;;;17.90;99.90;;;;;;20991708;28;19955;-76
2023/09/13 20:28:49;;;;;;;;;;;18.00;99.90;;;;;;20996883;28;20445;-76
2023/09/13 20:38:49;;;;;;;;;;;18.10;99.90;;;;;;21007219;28;19967;-76
2023/09/13 20:48:50;;;;;;;;;;;18.00;99.90;;;;;;20970949;28;19912;-76
2023/09/13 20:58:51;;;;;;;;;;;18.00;99.90;;;;;;21003705;28;19917;-75
2023/09/13 21:08:51;;;;;;;;;;;18.10;99.90;;;;;;20994490;28;20396;-75
2023/09/13 21:18:53;;;;;;;;;;;17.90;99.90;;;;;;21008103;28;19920;-76
2023/09/13 21:28:54;;;;;;;;;;;18.00;99.90;;;;;;20998597;28;19913;-76
2023/09/13 21:38:54;;;;;;;;;;;18.00;99.90;;;;;;20996053;28;19916;-76
2023/09/13 21:48:55;;;;;;;;;;;18.00;99.90;;;;;;21009486;28;19952;-75
2023/09/13 21:58:58;;;;;;;;;;;18.10;99.90;;;;;;20998956;28;20215;-75
2023/09/13 22:08:58;;;;;;;;;;;17.90;99.90;;;;;;21008282;28;19917;-76
2023/09/13 22:18:59;;;;;;;;;;;17.90;99.90;;;;;;20986929;28;19916;-76
2023/09/13 22:29:01;;;;;;;;;;;17.90;99.90;;;;;;21031378;28;20401;-76
2023/09/13 22:39:03;;;;;;;;;;;17.80;99.90;;;;;;21007144;28;20011;-76
2023/09/13 22:49:03;;;;;;;;;;;17.80;99.90;;;;;;21003600;28;19916;-76
2023/09/13 22:59:04;;;;;;;;;;;17.70;99.90;;;;;;21012565;28;19982;-76
2023/09/13 23:09:08;;;;;;;;;;;17.70;99.90;;;;;;21016715;28;19916;-76
2023/09/13 23:19:09;;;;;;;;;;;17.70;99.90;;;;;;21038795;28;20002;-76
2023/09/13 23:29:12;;;;;;;;;;;17.70;99.90;;;;;;21020944;28;19921;-76
2023/09/13 23:39:13;;;;;;;;;;;17.60;99.90;;;;;;21033749;28;20074;-76
2023/09/13 23:49:13;;;;;;;;;;;17.50;99.90;;;;;;21033628;28;20003;-75
2023/09/13 23:59:16;;;;;;;;;;;17.60;99.90;;;;;;21030428;28;19943;-76
